Time;durP1;ratioP1;P1;durP2;ratioP2;P2;SDS_P1;SDS_P2;PMS_P1;PMS_P2;Temp;Humidity;BMP_temperature;BMP_pressure;BME280_temperature;BME280_humidity;BME280_pressure;Samples;Min_cycle;Max_cycle;Signal;HPM_P1;HPM_P2
2023/11/17 00:02:00;;;;;;;6.47;3.20;;;2.60;99.90;;;;;;4900929;29;20218;-83
2023/11/17 00:04:25;;;;;;;3.90;2.80;;;2.60;99.90;;;;;;4901048;29;20614;-83
2023/11/17 00:06:51;;;;;;;4.87;3.20;;;2.60;99.90;;;;;;4900683;29;20198;-82
2023/11/17 00:09:17;;;;;;;3.97;2.93;;;2.60;99.90;;;;;;4917683;29;20205;-82
2023/11/17 00:11:43;;;;;;;4.70;2.87;;;2.70;99.90;;;;;;4900553;29;20202;-81
2023/11/17 00:14:08;;;;;;;4.00;2.83;;;2.70;99.90;;;;;;4900870;29;20326;-82
2023/11/17 00:16:35;;;;;;;5.00;2.80;;;2.70;99.90;;;;;;4918119;29;20309;-83
2023/11/17 00:19:07;;;;;;;5.23;2.87;;;2.70;99.90;;;;;;4900079;29;20246;-84
2023/11/17 00:21:36;;;;;;;4.87;2.90;;;2.70;99.90;;;;;;4896510;29;20191;-84
2023/11/17 00:24:05;;;;;;;5.33;3.00;;;2.80;99.90;;;;;;4916297;29;20764;-81
2023/11/17 00:26:35;;;;;;;4.60;2.83;;;2.70;99.90;;;;;;4900811;29;20237;-83
2023/11/17 00:29:00;;;;;;;3.53;2.63;;;2.80;99.90;;;;;;4900014;29;20222;-82
2023/11/17 00:31:29;;;;;;;3.30;2.73;;;2.80;99.90;;;;;;4917772;29;20206;-81
2023/11/17 00:33:55;;;;;;;3.30;2.60;;;2.80;99.90;;;;;;4900565;29;20253;-82
2023/11/17 00:36:21;;;;;;;5.40;2.77;;;2.80;99.90;;;;;;4909860;29;20190;-81
2023/11/17 00:38:47;;;;;;;3.83;2.73;;;2.90;99.90;;;;;;4899904;29;20202;-79
2023/11/17 00:41:13;;;;;;;3.57;2.50;;;2.90;99.90;;;;;;4900208;29;20201;-81
2023/11/17 00:43:39;;;;;;;4.53;2.57;;;2.90;99.90;;;;;;4910341;29;20297;-81
2023/11/17 00:46:05;;;;;;;5.07;2.30;;;2.90;99.90;;;;;;4899684;29;21412;-81
2023/11/17 00:48:31;;;;;;;3.17;2.50;;;3.00;99.90;;;;;;4900176;29;20226;-81
2023/11/17 00:50:59;;;;;;;4.13;3.03;;;3.00;99.90;;;;;;4900388;29;20222;-83
2023/11/17 00:53:26;;;;;;;3.73;2.50;;;3.00;99.90;;;;;;4911621;29;20209;-83
2023/11/17 00:55:53;;;;;;;4.73;2.57;;;3.00;99.90;;;;;;4916838;29;20187;-82
2023/11/17 00:58:23;;;;;;;3.20;2.53;;;3.00;99.90;;;;;;4900179;29;20194;-81
2023/11/17 01:00:52;;;;;;;3.77;2.47;;;3.00;99.90;;;;;;4917242;29;20217;-84
2023/11/17 01:03:19;;;;;;;4.07;2.30;;;3.00;99.90;;;;;;4900531;29;20186;-82
2023/11/17 01:05:45;;;;;;;3.30;2.50;;;3.00;99.90;;;;;;4903997;29;20198;-84
2023/11/17 01:08:11;;;;;;;3.83;2.70;;;3.00;99.90;;;;;;4920531;29;20552;-87
2023/11/17 01:10:38;;;;;;;3.30;2.40;;;3.00;99.90;;;;;;4920557;29;20653;-82
2023/11/17 01:13:05;;;;;;;7.90;2.67;;;3.00;99.90;;;;;;4903640;29;20197;-82
2023/11/17 01:15:34;;;;;;;3.30;2.73;;;3.00;99.90;;;;;;4903995;29;20555;-82
2023/11/17 01:18:01;;;;;;;3.00;2.40;;;3.00;99.90;;;;;;4903471;29;20597;-80
2023/11/17 01:20:27;;;;;;;3.00;2.07;;;3.00;99.90;;;;;;4920647;29;20234;-82
2023/11/17 01:22:53;;;;;;;4.80;2.77;;;3.00;99.90;;;;;;4914684;29;20506;-82
2023/11/17 01:25:19;;;;;;;2.90;2.53;;;3.00;99.90;;;;;;4920248;29;20183;-81
2023/11/17 01:27:45;;;;;;;5.13;2.30;;;3.00;99.90;;;;;;4902810;29;20214;-81
2023/11/17 01:30:12;;;;;;;2.97;2.23;;;3.10;99.90;;;;;;4903570;29;20683;-82
2023/11/17 01:32:38;;;;;;;6.03;2.20;;;3.10;99.90;;;;;;4920655;29;20190;-81
2023/11/17 01:35:04;;;;;;;3.10;2.20;;;3.00;99.90;;;;;;4903618;29;20193;-83
2023/11/17 01:37:30;;;;;;;5.50;2.60;;;3.00;99.90;;;;;;4895974;29;20220;-84
2023/11/17 01:39:55;;;;;;;3.13;2.27;;;3.10;99.90;;;;;;4902980;29;20209;-83
2023/11/17 01:42:21;;;;;;;3.70;2.33;;;3.00;99.90;;;;;;4919917;29;20261;-81
2023/11/17 01:44:47;;;;;;;2.60;2.40;;;3.00;99.90;;;;;;4902903;29;20579;-82
2023/11/17 01:47:14;;;;;;;4.73;2.30;;;3.10;99.90;;;;;;4919700;29;20241;-80
2023/11/17 01:49:41;;;;;;;3.77;2.57;;;3.10;99.90;;;;;;5293046;23;20236;-79
2023/11/17 01:52:07;;;;;;;4.10;2.53;;;3.00;99.90;;;;;;4881168;29;20188;-80
2023/11/17 01:54:35;;;;;;;7.10;2.67;;;3.00;99.90;;;;;;4883081;29;20225;-79
2023/11/17 01:57:02;;;;;;;3.80;2.47;;;3.00;99.90;;;;;;4881163;29;20687;-81
2023/11/17 01:59:27;;;;;;;3.10;2.40;;;3.10;99.90;;;;;;4881086;29;20192;-79
2023/11/17 02:01:53;;;;;;;4.17;2.20;;;3.10;99.90;;;;;;4881052;29;20540;-79
2023/11/17 02:04:19;;;;;;;3.43;2.27;;;3.20;99.90;;;;;;4881202;29;20232;-78
2023/11/17 02:07:09;;;;;;;2.10;1.90;;;3.30;99.90;;;;;;4882514;29;20184;-79
2023/11/17 02:10:07;;;;;;;3.17;2.10;;;3.30;99.90;;;;;;4867060;29;20329;-78
2023/11/17 02:13:14;;;;;;;2.93;1.93;;;3.20;99.90;;;;;;4871394;29;20592;-78
2023/11/17 02:15:41;;;;;;;2.23;1.73;;;3.30;99.90;;;;;;4873255;29;20556;-80
2023/11/17 02:18:15;;;;;;;2.27;1.70;;;3.10;99.90;;;;;;4880848;29;20650;-83
2023/11/17 02:20:44;;;;;;;3.00;2.00;;;3.10;99.90;;;;;;4879643;29;20497;-82
2023/11/17 02:23:15;;;;;;;4.47;2.07;;;3.10;99.90;;;;;;4880378;29;20188;-81
2023/11/17 02:26:03;;;;;;;2.97;1.93;;;3.10;99.90;;;;;;4853081;29;20617;-82
2023/11/17 02:29:04;;;;;;;4.87;2.10;;;3.00;99.90;;;;;;4860338;29;20213;-83
2023/11/17 02:31:35;;;;;;;2.97;1.80;;;3.00;99.90;;;;;;4870150;29;20524;-81
2023/11/17 02:34:08;;;;;;;5.03;1.80;;;3.00;99.90;;;;;;4877766;29;20187;-83
2023/11/17 02:36:35;;;;;;;2.17;1.83;;;3.00;99.90;;;;;;4872574;29;20206;-84
2023/11/17 02:39:14;;;;;;;2.33;1.80;;;3.00;99.90;;;;;;4880338;29;20591;-82
2023/11/17 02:41:56;;;;;;;2.57;2.10;;;3.00;99.90;;;;;;4881648;29;20172;-86
2023/11/17 02:44:31;;;;;;;3.30;2.00;;;3.10;99.90;;;;;;4881614;29;20251;-84
2023/11/17 02:47:03;;;;;;;2.00;1.73;;;3.00;99.90;;;;;;4881299;29;20212;-81
2023/11/17 02:49:46;;;;;;;3.60;2.13;;;3.00;99.90;;;;;;4873206;29;20308;-81
2023/11/17 02:52:20;;;;;;;3.90;2.10;;;3.10;99.90;;;;;;4861489;29;20185;-78
2023/11/17 02:54:47;;;;;;;4.30;2.10;;;3.10;99.90;;;;;;4862710;29;20189;-81
2023/11/17 02:57:15;;;;;;;3.13;2.10;;;3.20;99.90;;;;;;4866212;29;20499;-78
2023/11/17 02:59:42;;;;;;;2.20;1.90;;;3.20;99.90;;;;;;4881027;29;20194;-79
2023/11/17 03:02:08;;;;;;;3.77;1.80;;;3.10;99.90;;;;;;4879901;29;20195;-78
2023/11/17 03:04:37;;;;;;;2.73;1.90;;;3.10;99.90;;;;;;4879344;29;20190;-80
2023/11/17 03:07:02;;;;;;;2.23;1.80;;;3.10;99.90;;;;;;4871720;29;20192;-79
2023/11/17 03:09:30;;;;;;;1.93;1.70;;;3.20;99.90;;;;;;4881081;29;20188;-79
2023/11/17 03:11:59;;;;;;;3.47;1.73;;;3.20;99.90;;;;;;4877409;29;20188;-82
2023/11/17 03:14:26;;;;;;;2.10;1.60;;;3.20;99.90;;;;;;4869367;29;20232;-79
2023/11/17 03:16:53;;;;;;;3.30;1.60;;;3.20;99.90;;;;;;4871282;29;20544;-82
2023/11/17 03:19:18;;;;;;;3.80;1.80;;;3.20;99.90;;;;;;4873045;29;20192;-81
2023/11/17 03:21:44;;;;;;;1.70;1.60;;;3.20;99.90;;;;;;4864223;29;20183;-79
2023/11/17 03:24:17;;;;;;;4.37;1.50;;;3.20;99.90;;;;;;4869015;29;20244;-79
2023/11/17 03:26:47;;;;;;;2.20;1.80;;;3.30;99.90;;;;;;4875387;29;20195;-78
2023/11/17 03:29:15;;;;;;;2.20;1.67;;;3.30;99.90;;;;;;4859274;29;20241;-81
2023/11/17 03:31:59;;;;;;;5.40;1.77;;;3.30;99.90;;;;;;4857143;29;20215;-81
2023/11/17 03:34:29;;;;;;;5.33;2.20;;;3.30;99.90;;;;;;4859896;29;20188;-80
2023/11/17 03:36:58;;;;;;;3.97;2.20;;;3.20;99.90;;;;;;4879367;29;20207;-81
2023/11/17 03:39:31;;;;;;;6.57;2.47;;;3.20;99.90;;;;;;4879422;29;20646;-79
2023/11/17 03:41:59;;;;;;;4.43;2.60;;;3.20;99.90;;;;;;4876582;29;20260;-80
2023/11/17 03:44:25;;;;;;;5.00;2.80;;;3.20;99.90;;;;;;4868556;29;20200;-79
2023/11/17 03:46:55;;;;;;;5.83;2.93;;;3.20;99.90;;;;;;4872582;29;20189;-80
2023/11/17 03:49:21;;;;;;;4.20;2.87;;;3.20;99.90;;;;;;4878023;29;20280;-82
2023/11/17 03:51:50;;;;;;;7.03;3.23;;;3.20;99.90;;;;;;4865337;29;20223;-81
2023/11/17 03:54:19;;;;;;;4.77;3.10;;;3.20;99.90;;;;;;4880522;29;20180;-81
2023/11/17 03:56:44;;;;;;;3.97;2.97;;;3.30;99.90;;;;;;4871945;29;20188;-81
2023/11/17 03:59:13;;;;;;;4.00;3.00;;;3.40;99.90;;;;;;4879133;29;20196;-83
2023/11/17 04:01:42;;;;;;;8.50;3.00;;;3.40;99.90;;;;;;4865109;29;20197;-85
2023/11/17 04:04:08;;;;;;;4.53;2.80;;;3.40;99.90;;;;;;4869351;29;20193;-82
2023/11/17 04:06:34;;;;;;;3.30;2.60;;;3.40;99.90;;;;;;4875785;29;20196;-81
2023/11/17 04:09:05;;;;;;;2.50;2.30;;;3.30;99.90;;;;;;4871618;29;20611;-84
2023/11/17 04:11:31;;;;;;;5.73;2.50;;;3.40;99.90;;;;;;4873934;29;20184;-81
2023/11/17 04:13:57;;;;;;;4.07;2.50;;;3.40;99.90;;;;;;4878725;29;20239;-83
2023/11/17 04:16:23;;;;;;;3.30;2.70;;;3.40;99.90;;;;;;4879455;29;20188;-83
2023/11/17 04:18:49;;;;;;;3.23;2.20;;;3.40;99.90;;;;;;4870341;29;20683;-82
2023/11/17 04:21:17;;;;;;;5.40;2.87;;;3.40;99.90;;;;;;4878846;29;20212;-83
2023/11/17 04:23:43;;;;;;;3.90;2.53;;;3.40;99.90;;;;;;4879184;29;20194;-79
2023/11/17 04:26:12;;;;;;;5.90;2.60;;;3.50;99.90;;;;;;4879002;29;20223;-81
2023/11/17 04:28:38;;;;;;;3.33;2.53;;;3.50;99.90;;;;;;4878525;29;20662;-81
2023/11/17 04:31:07;;;;;;;4.50;2.60;;;3.50;99.90;;;;;;4869984;29;20210;-80
2023/11/17 04:33:33;;;;;;;3.30;2.30;;;3.50;99.90;;;;;;4873299;29;20623;-80
2023/11/17 04:36:00;;;;;;;4.53;2.73;;;3.50;99.90;;;;;;4879385;29;20286;-80
2023/11/17 04:38:26;;;;;;;3.37;2.40;;;3.60;99.90;;;;;;4879052;29;20199;-82
2023/11/17 04:40:52;;;;;;;2.97;2.50;;;3.60;99.90;;;;;;4882524;29;20561;-80
2023/11/17 04:43:18;;;;;;;3.47;2.50;;;3.50;99.90;;;;;;4882279;29;20191;-80
2023/11/17 04:45:44;;;;;;;5.17;3.10;;;3.60;99.90;;;;;;4882663;29;20639;-82
2023/11/17 04:48:13;;;;;;;4.63;2.70;;;3.60;99.90;;;;;;4883305;29;20219;-81
2023/11/17 04:50:40;;;;;;;3.27;2.60;;;3.50;99.90;;;;;;4881115;29;20231;-82
2023/11/17 04:53:08;;;;;;;4.67;2.77;;;3.50;99.90;;;;;;4882878;29;20623;-80
2023/11/17 04:55:34;;;;;;;2.73;2.43;;;3.60;99.90;;;;;;4882641;29;20195;-84
2023/11/17 04:58:05;;;;;;;4.90;3.40;;;3.50;99.90;;;;;;4883706;29;20180;-81
2023/11/17 05:00:31;;;;;;;4.20;3.13;;;3.60;99.90;;;;;;4882308;29;20331;-82
2023/11/17 05:03:00;;;;;;;4.37;3.40;;;3.50;99.90;;;;;;4883058;29;20212;-82
2023/11/17 05:05:26;;;;;;;4.63;3.30;;;3.60;99.90;;;;;;4883500;29;20255;-83
2023/11/17 05:07:52;;;;;;;5.47;3.20;;;3.60;99.90;;;;;;4879672;29;20227;-81
2023/11/17 05:10:21;;;;;;;3.87;3.00;;;3.60;99.90;;;;;;4881675;29;20192;-81
2023/11/17 05:12:48;;;;;;;4.43;3.37;;;3.60;99.90;;;;;;4881874;29;20191;-81
2023/11/17 05:15:15;;;;;;;7.27;3.53;;;3.60;99.90;;;;;;4875334;29;20192;-83
2023/11/17 05:17:45;;;;;;;7.20;3.60;;;3.60;99.90;;;;;;4873984;29;20192;-79
2023/11/17 05:20:17;;;;;;;5.30;3.83;;;3.60;99.90;;;;;;4880301;29;20192;-80
2023/11/17 05:22:45;;;;;;;5.57;3.83;;;3.60;99.90;;;;;;4882065;29;20646;-79
2023/11/17 05:25:12;;;;;;;9.10;4.00;;;3.60;99.90;;;;;;4883262;29;20551;-80
2023/11/17 05:27:39;;;;;;;5.30;3.77;;;3.60;99.90;;;;;;4881185;29;20227;-82
2023/11/17 05:30:06;;;;;;;6.97;4.47;;;3.60;99.90;;;;;;4880687;29;20212;-80
2023/11/17 05:32:36;;;;;;;8.97;4.60;;;3.60;99.90;;;;;;4881557;29;20194;-79
2023/11/17 05:35:05;;;;;;;4.83;3.80;;;3.60;99.90;;;;;;4865909;29;20280;-81
2023/11/17 05:37:31;;;;;;;5.40;4.00;;;3.70;99.90;;;;;;4881682;29;20530;-79
2023/11/17 05:39:57;;;;;;;6.23;3.87;;;3.70;99.90;;;;;;4881242;29;20287;-81
2023/11/17 05:42:28;;;;;;;7.27;4.40;;;3.70;99.90;;;;;;4873953;29;20266;-82
2023/11/17 05:44:54;;;;;;;6.03;4.23;;;3.60;99.90;;;;;;4870425;29;20218;-82
2023/11/17 05:47:21;;;;;;;5.43;4.03;;;3.60;99.90;;;;;;4881168;29;20218;-79
2023/11/17 05:49:49;;;;;;;9.87;4.20;;;3.70;99.90;;;;;;4871025;29;20236;-80
2023/11/17 05:52:16;;;;;;;6.20;4.63;;;3.60;99.90;;;;;;4866154;29;20180;-79
2023/11/17 05:54:46;;;;;;;6.00;4.30;;;3.60;99.90;;;;;;4881067;29;20287;-83
2023/11/17 05:57:19;;;;;;;8.93;4.77;;;3.50;99.90;;;;;;4881126;29;20184;-83
2023/11/17 05:59:50;;;;;;;8.23;4.93;;;3.50;99.90;;;;;;4867427;29;20181;-82
2023/11/17 06:02:16;;;;;;;5.47;4.50;;;3.50;99.90;;;;;;4874770;29;20208;-81
2023/11/17 06:04:42;;;;;;;6.87;4.43;;;3.50;99.90;;;;;;4882394;29;20627;-80
2023/11/17 06:07:08;;;;;;;6.87;4.90;;;3.40;99.90;;;;;;4881958;29;20585;-82
2023/11/17 06:09:35;;;;;;;6.73;4.50;;;3.50;99.90;;;;;;4882098;29;20635;-81
2023/11/17 06:12:01;;;;;;;7.17;4.97;;;3.50;99.90;;;;;;4877991;29;20180;-79
2023/11/17 06:14:33;;;;;;;8.73;4.97;;;3.50;99.90;;;;;;4865669;29;20579;-82
2023/11/17 06:17:00;;;;;;;7.33;4.70;;;3.50;99.90;;;;;;4880914;29;20274;-80
2023/11/17 06:19:30;;;;;;;7.30;4.80;;;3.50;99.90;;;;;;4879598;29;20192;-80
2023/11/17 06:21:56;;;;;;;6.73;5.00;;;3.50;99.90;;;;;;4880880;29;20184;-83
2023/11/17 06:24:22;;;;;;;6.33;4.97;;;3.60;99.90;;;;;;4880862;29;20220;-81
2023/11/17 06:26:49;;;;;;;10.60;5.23;;;3.60;99.90;;;;;;4880893;29;20199;-79
2023/11/17 06:29:18;;;;;;;6.10;4.83;;;3.60;99.90;;;;;;4880884;29;20216;-82
2023/11/17 06:31:46;;;;;;;10.63;5.70;;;3.60;99.90;;;;;;4865981;29;20188;-81
2023/11/17 06:34:12;;;;;;;7.77;5.27;;;3.60;99.90;;;;;;4880489;29;20219;-81
2023/11/17 06:36:41;;;;;;;6.97;5.10;;;3.60;99.90;;;;;;4880657;29;20196;-79
2023/11/17 06:39:18;;;;;;;6.43;5.03;;;3.60;99.90;;;;;;4880748;29;20244;-78
2023/11/17 06:41:48;;;;;;;9.47;4.80;;;3.60;99.90;;;;;;4880731;29;20219;-84
2023/11/17 06:44:19;;;;;;;7.00;4.70;;;3.60;99.90;;;;;;4880636;29;20551;-80
2023/11/17 06:46:46;;;;;;;8.73;5.00;;;3.60;99.90;;;;;;4880699;29;20188;-82
2023/11/17 06:49:14;;;;;;;6.37;5.13;;;3.60;99.90;;;;;;4878750;29;20294;-80
2023/11/17 06:51:40;;;;;;;9.50;5.10;;;3.50;99.90;;;;;;4880488;29;20191;-81
2023/11/17 06:54:11;;;;;;;7.30;4.97;;;3.50;99.90;;;;;;4880687;29;20616;-82
2023/11/17 06:56:41;;;;;;;7.50;4.97;;;3.50;99.90;;;;;;4880643;29;20220;-83
2023/11/17 06:59:09;;;;;;;6.97;4.93;;;3.50;99.90;;;;;;4881784;29;20187;-83
2023/11/17 07:01:35;;;;;;;8.10;5.37;;;3.50;99.90;;;;;;4879496;29;20191;-81
2023/11/17 07:04:12;;;;;;;9.53;4.67;;;3.50;99.90;;;;;;4880036;29;20184;-81
2023/11/17 07:06:38;;;;;;;7.27;4.90;;;3.40;99.90;;;;;;4880129;29;20202;-83
2023/11/17 07:09:30;;;;;;;10.33;4.47;;;3.50;99.90;;;;;;4881211;29;20208;-84
2023/11/17 07:11:54;;;;;;;6.47;4.50;;;3.50;99.90;;;;;;4880186;29;20196;-84
2023/11/17 07:14:22;;;;;;;13.53;5.10;;;3.40;99.90;;;;;;4866957;29;20616;-82
2023/11/17 07:16:48;;;;;;;9.53;4.90;;;3.40;99.90;;;;;;4881711;29;20195;-82
2023/11/17 07:19:16;;;;;;;6.57;5.20;;;3.50;99.90;;;;;;4860486;29;20195;-84
2023/11/17 07:21:42;;;;;;;10.47;4.97;;;3.50;99.90;;;;;;4867945;29;20195;-83
2023/11/17 07:24:11;;;;;;;8.23;5.10;;;3.50;99.90;;;;;;4880344;29;20225;-82
2023/11/17 07:26:37;;;;;;;6.00;4.40;;;3.50;99.90;;;;;;4880065;29;20279;-83
2023/11/17 07:29:04;;;;;;;6.83;4.30;;;3.50;99.90;;;;;;4881106;29;20302;-83
2023/11/17 07:31:40;;;;;;;11.37;4.90;;;3.50;99.90;;;;;;4879781;29;20223;-81
2023/11/17 07:34:07;;;;;;;6.00;4.13;;;3.50;99.90;;;;;;4880253;29;20196;-83
2023/11/17 07:36:37;;;;;;;10.10;4.63;;;3.50;99.90;;;;;;4879567;29;20232;-83
2023/11/17 07:39:12;;;;;;;6.47;4.23;;;3.50;99.90;;;;;;4879316;29;20275;-82
2023/11/17 07:41:39;;;;;;;7.97;4.23;;;3.50;99.90;;;;;;4879786;29;20274;-86
2023/11/17 07:44:08;;;;;;;8.67;4.90;;;3.50;99.90;;;;;;4877912;29;20187;-81
2023/11/17 07:46:36;;;;;;;9.30;4.97;;;3.50;99.90;;;;;;4866935;29;20283;-81
2023/11/17 07:49:10;;;;;;;6.37;4.33;;;3.60;99.90;;;;;;4875451;29;20633;-80
2023/11/17 07:51:36;;;;;;;6.97;4.67;;;3.60;99.90;;;;;;4880229;29;20514;-81
2023/11/17 07:54:04;;;;;;;6.03;3.90;;;3.80;99.90;;;;;;4879428;29;20631;-83
2023/11/17 07:56:30;;;;;;;8.73;4.60;;;3.90;99.90;;;;;;4879689;29;20271;-81
2023/11/17 07:58:59;;;;;;;6.83;4.50;;;3.90;99.90;;;;;;4872898;29;20619;-83
2023/11/17 08:01:25;;;;;;;8.67;4.57;;;3.90;99.90;;;;;;4879599;29;20278;-82
2023/11/17 08:03:51;;;;;;;6.80;4.83;;;4.00;99.90;;;;;;4879358;29;20232;-81
2023/11/17 08:06:16;;;;;;;6.83;4.33;;;4.00;99.90;;;;;;4878911;29;20195;-82
2023/11/17 08:08:42;;;;;;;6.63;4.67;;;4.10;99.90;;;;;;4871617;29;20275;-81
2023/11/17 08:11:09;;;;;;;6.93;4.63;;;4.10;99.90;;;;;;4878984;29;20192;-81
2023/11/17 08:13:37;;;;;;;7.80;4.83;;;4.20;99.90;;;;;;4878923;29;20622;-83
2023/11/17 08:16:05;;;;;;;11.43;4.90;;;4.20;99.90;;;;;;4879096;29;20638;-81
2023/11/17 08:18:33;;;;;;;7.83;4.63;;;4.30;99.90;;;;;;4878951;29;20283;-81
2023/11/17 08:21:00;;;;;;;7.73;4.67;;;4.30;99.90;;;;;;4869854;29;20212;-82
2023/11/17 08:23:26;;;;;;;8.83;4.60;;;4.30;99.90;;;;;;4858138;29;20214;-80
2023/11/17 08:25:52;;;;;;;7.50;4.33;;;4.30;99.90;;;;;;4867912;29;20596;-80
2023/11/17 08:28:18;;;;;;;6.77;4.70;;;4.30;99.90;;;;;;4880154;29;20224;-82
2023/11/17 08:30:44;;;;;;;6.33;4.67;;;4.40;99.90;;;;;;4880212;29;20188;-81
2023/11/17 08:33:09;;;;;;;7.17;4.80;;;4.50;99.90;;;;;;4874666;29;20199;-80
2023/11/17 08:35:36;;;;;;;6.63;4.27;;;4.60;99.90;;;;;;4862288;29;20732;-83
2023/11/17 08:38:02;;;;;;;5.20;4.10;;;4.60;99.90;;;;;;4878799;29;20191;-82
2023/11/17 08:40:28;;;;;;;7.23;4.40;;;4.70;99.90;;;;;;4878703;29;20616;-83
2023/11/17 08:42:54;;;;;;;7.20;4.67;;;4.80;99.90;;;;;;4863378;29;20199;-81
2023/11/17 08:45:19;;;;;;;5.77;4.37;;;4.80;99.90;;;;;;4878665;29;20192;-82
2023/11/17 08:47:51;;;;;;;7.10;4.27;;;4.90;99.90;;;;;;4878287;29;20216;-81
2023/11/17 08:50:17;;;;;;;7.70;4.77;;;4.90;99.90;;;;;;4859188;29;20229;-82
2023/11/17 08:52:45;;;;;;;6.00;4.60;;;5.00;99.90;;;;;;4870947;29;20640;-84
2023/11/17 08:55:17;;;;;;;5.13;4.40;;;5.00;99.90;;;;;;4878881;29;20188;-84
2023/11/17 08:57:44;;;;;;;5.17;4.07;;;5.00;99.90;;;;;;4879257;29;20180;-82
2023/11/17 09:00:12;;;;;;;5.17;4.10;;;5.10;99.90;;;;;;4863682;29;20199;-80
2023/11/17 09:02:41;;;;;;;5.40;4.00;;;5.00;99.90;;;;;;4879073;29;20190;-82
2023/11/17 09:05:10;;;;;;;9.27;4.20;;;5.10;99.90;;;;;;4878561;29;20219;-81
2023/11/17 09:07:40;;;;;;;7.80;3.77;;;5.10;99.90;;;;;;4879675;29;20199;-83
2023/11/17 09:10:11;;;;;;;5.83;3.70;;;5.20;99.90;;;;;;4879059;29;20236;-80
2023/11/17 09:12:47;;;;;;;5.83;3.40;;;5.20;99.90;;;;;;4878148;29;20188;-81
2023/11/17 09:15:23;;;;;;;5.90;3.73;;;5.30;99.90;;;;;;4878642;29;20184;-83
2023/11/17 09:17:52;;;;;;;4.73;3.67;;;5.30;99.90;;;;;;4878418;29;20587;-83
2023/11/17 09:20:21;;;;;;;5.23;3.77;;;5.30;99.90;;;;;;4862310;29;20271;-82
2023/11/17 09:22:48;;;;;;;5.57;3.53;;;5.30;99.90;;;;;;4853484;29;20232;-85
2023/11/17 09:25:16;;;;;;;4.73;3.40;;;5.40;99.90;;;;;;4862073;29;20211;-81
2023/11/17 09:27:57;;;;;;;4.97;3.63;;;5.40;99.90;;;;;;4871791;29;20281;-83
2023/11/17 09:30:24;;;;;;;6.07;3.50;;;5.40;99.90;;;;;;4881902;29;20211;-82
2023/11/17 09:32:55;;;;;;;8.60;3.70;;;5.40;99.90;;;;;;4881871;29;20553;-80
2023/11/17 09:35:25;;;;;;;5.93;3.50;;;5.50;99.90;;;;;;4881615;29;20248;-82
2023/11/17 09:38:01;;;;;;;6.57;3.63;;;5.50;99.90;;;;;;4881609;29;20192;-82
2023/11/17 09:40:29;;;;;;;5.77;3.63;;;5.50;99.90;;;;;;4881754;29;20188;-81
2023/11/17 09:42:57;;;;;;;5.53;3.90;;;5.40;99.90;;;;;;4881441;29;20191;-80
2023/11/17 09:45:28;;;;;;;3.63;3.00;;;5.50;99.90;;;;;;4881845;29;20274;-82
2023/11/17 09:47:59;;;;;;;4.43;3.33;;;5.40;99.90;;;;;;4881421;29;20216;-83
2023/11/17 09:50:29;;;;;;;6.73;4.37;;;5.50;99.90;;;;;;4879600;29;20710;-81
2023/11/17 09:52:57;;;;;;;6.40;4.20;;;5.50;99.90;;;;;;4881636;29;20240;-83
2023/11/17 09:55:27;;;;;;;9.57;4.40;;;5.60;99.90;;;;;;4881813;29;20187;-81
2023/11/17 09:58:02;;;;;;;4.93;3.87;;;5.60;99.90;;;;;;4881148;29;20195;-83
2023/11/17 10:00:28;;;;;;;4.30;3.37;;;5.60;99.90;;;;;;4881641;29;20195;-82
2023/11/17 10:03:00;;;;;;;5.90;3.53;;;5.60;99.90;;;;;;4881253;29;20226;-81
2023/11/17 10:05:38;;;;;;;9.03;3.57;;;5.70;99.90;;;;;;4881440;29;20191;-82
2023/11/17 10:08:12;;;;;;;9.73;5.20;;;5.70;99.90;;;;;;4877382;29;20219;-83
2023/11/17 10:10:42;;;;;;;6.60;3.57;;;5.80;99.90;;;;;;4874744;29;20239;-80
2023/11/17 10:13:11;;;;;;;4.90;3.70;;;5.80;99.90;;;;;;4882261;29;20270;-81
2023/11/17 10:15:47;;;;;;;5.67;3.73;;;5.90;99.90;;;;;;4881432;29;20276;-83
2023/11/17 10:18:24;;;;;;;4.60;3.53;;;5.90;99.90;;;;;;4870463;29;20194;-82
2023/11/17 10:20:50;;;;;;;5.23;3.40;;;5.90;99.90;;;;;;4861497;29;20228;-80
2023/11/17 10:23:18;;;;;;;4.30;3.50;;;6.00;99.90;;;;;;4867823;29;20239;-82
2023/11/17 10:25:44;;;;;;;5.53;3.50;;;6.10;99.90;;;;;;4855031;29;20220;-80
2023/11/17 10:28:12;;;;;;;4.43;3.70;;;6.00;99.90;;;;;;4858365;29;20251;-82
2023/11/17 10:30:41;;;;;;;7.53;3.70;;;6.00;99.90;;;;;;4876476;29;20568;-84
2023/11/17 10:33:20;;;;;;;6.73;4.23;;;6.10;99.90;;;;;;4880726;29;20188;-85
2023/11/17 10:36:12;;;;;;;4.53;3.47;;;6.10;99.90;;;;;;4879897;29;20579;-82
2023/11/17 10:38:45;;;;;;;8.07;3.90;;;6.20;99.90;;;;;;4880754;29;20191;-81
2023/11/17 10:41:20;;;;;;;5.83;3.80;;;6.20;99.90;;;;;;4880615;29;20195;-83
2023/11/17 10:43:51;;;;;;;4.43;3.73;;;6.20;99.90;;;;;;4880639;29;20191;-83
2023/11/17 10:46:21;;;;;;;5.47;3.30;;;6.20;99.90;;;;;;4867729;29;20261;-83
2023/11/17 10:48:50;;;;;;;5.07;3.63;;;6.20;99.90;;;;;;4866430;29;20269;-85
2023/11/17 10:51:18;;;;;;;7.60;3.73;;;6.20;99.90;;;;;;4865834;29;20194;-85
2023/11/17 10:54:08;;;;;;;5.80;3.53;;;6.20;99.90;;;;;;4860681;29;20257;-83
2023/11/17 10:56:35;;;;;;;4.43;3.50;;;6.30;99.90;;;;;;4856986;29;20189;-83
2023/11/17 10:59:05;;;;;;;5.50;3.20;;;6.40;99.90;;;;;;4879047;29;20223;-82
2023/11/17 11:01:35;;;;;;;5.17;2.87;;;6.40;99.90;;;;;;4880133;29;20247;-81
2023/11/17 11:04:15;;;;;;;6.10;3.37;;;6.60;99.90;;;;;;4870802;29;20188;-83
2023/11/17 11:06:42;;;;;;;3.97;2.90;;;6.70;99.90;;;;;;4852551;29;20177;-83
2023/11/17 11:09:18;;;;;;;7.10;3.00;;;6.70;99.90;;;;;;4854899;29;20707;-83
2023/11/17 11:11:50;;;;;;;4.67;3.20;;;6.80;99.90;;;;;;4881561;29;20249;-85
2023/11/17 11:14:17;;;;;;;4.37;2.67;;;6.90;99.90;;;;;;4865435;29;20613;-85
2023/11/17 11:16:46;;;;;;;4.47;2.87;;;7.10;99.90;;;;;;4881282;29;20247;-82
2023/11/17 11:19:14;;;;;;;3.77;2.40;;;7.20;99.90;;;;;;4872500;29;20188;-84
2023/11/17 11:21:40;;;;;;;3.13;2.20;;;7.20;99.90;;;;;;4879540;29;20183;-81
2023/11/17 11:24:08;;;;;;;4.20;2.40;;;7.20;99.90;;;;;;4879676;29;20188;-82
2023/11/17 11:26:38;;;;;;;3.43;2.40;;;7.10;99.90;;;;;;4879498;29;20219;-83
2023/11/17 11:29:05;;;;;;;4.67;2.40;;;7.00;99.90;;;;;;4879520;29;20264;-83
2023/11/17 11:31:33;;;;;;;3.47;2.30;;;7.00;99.90;;;;;;4879815;29;20274;-83
2023/11/17 11:34:02;;;;;;;4.27;2.10;;;7.00;99.90;;;;;;4872690;29;20205;-83
2023/11/17 11:36:28;;;;;;;2.23;2.03;;;7.00;99.90;;;;;;4871074;29;20260;-83
2023/11/17 11:38:56;;;;;;;4.50;2.30;;;7.00;99.90;;;;;;4874325;29;20192;-85
2023/11/17 11:41:22;;;;;;;4.77;2.60;;;6.90;99.90;;;;;;4880708;29;20243;-81
2023/11/17 11:43:54;;;;;;;7.83;2.20;;;7.00;99.90;;;;;;4879535;29;20198;-82
2023/11/17 11:46:25;;;;;;;3.53;2.30;;;7.00;99.90;;;;;;4873034;29;20192;-82
2023/11/17 11:48:59;;;;;;;3.97;2.30;;;7.00;99.90;;;;;;4858171;29;20316;-81
2023/11/17 11:51:29;;;;;;;3.27;2.50;;;7.10;99.90;;;;;;4871539;29;20579;-81
2023/11/17 11:54:00;;;;;;;3.47;2.20;;;7.10;99.90;;;;;;4866227;29;20272;-82
2023/11/17 11:56:31;;;;;;;3.87;2.07;;;7.10;99.90;;;;;;4879326;29;20279;-83
2023/11/17 11:58:59;;;;;;;4.77;2.00;;;7.20;99.90;;;;;;4879267;29;20195;-81
2023/11/17 12:01:32;;;;;;;4.47;2.13;;;7.10;99.90;;;;;;4878949;29;20192;-80
2023/11/17 12:04:00;;;;;;;5.30;2.00;;;7.20;99.90;;;;;;4873014;29;20200;-84
2023/11/17 12:06:30;;;;;;;3.60;2.00;;;7.20;99.90;;;;;;4879997;29;20184;-83
2023/11/17 12:09:00;;;;;;;5.23;2.60;;;7.30;99.90;;;;;;4871237;29;20228;-82
2023/11/17 12:11:35;;;;;;;5.70;1.90;;;7.30;99.90;;;;;;4878719;29;20527;-81
2023/11/17 12:14:06;;;;;;;6.03;1.80;;;7.30;99.90;;;;;;4879917;29;20183;-82
2023/11/17 12:16:42;;;;;;;3.50;1.50;;;7.30;99.90;;;;;;4878968;29;20188;-81
2023/11/17 12:19:09;;;;;;;5.53;2.10;;;7.40;99.90;;;;;;4880213;29;20266;-82
2023/11/17 12:21:38;;;;;;;4.47;1.83;;;7.40;99.90;;;;;;4858731;29;20189;-82
2023/11/17 12:24:11;;;;;;;4.03;1.57;;;7.40;99.90;;;;;;4864986;29;20188;-83
2023/11/17 12:26:40;;;;;;;7.97;1.70;;;7.40;99.90;;;;;;4859202;29;20195;-82
2023/11/17 12:29:11;;;;;;;2.73;1.97;;;7.40;99.90;;;;;;4852138;29;20212;-83
2023/11/17 12:31:38;;;;;;;9.73;2.17;;;7.40;99.90;;;;;;4859555;29;20181;-84
2023/11/17 12:34:07;;;;;;;3.37;2.23;;;7.30;99.90;;;;;;4870292;29;20184;-84
2023/11/17 12:36:35;;;;;;;3.10;1.80;;;7.30;99.90;;;;;;4868758;29;20191;-81
2023/11/17 12:39:11;;;;;;;6.73;2.07;;;7.30;99.90;;;;;;4877944;29;20188;-84
2023/11/17 12:41:38;;;;;;;5.10;3.07;;;7.20;99.90;;;;;;4865147;29;20188;-84
2023/11/17 12:44:07;;;;;;;4.33;2.53;;;7.10;99.90;;;;;;4877075;29;20217;-84
2023/11/17 12:46:32;;;;;;;4.83;2.50;;;6.90;99.90;;;;;;4874575;29;20187;-85
2023/11/17 12:48:59;;;;;;;9.23;3.40;;;6.90;99.90;;;;;;4876197;29;20243;-84
2023/11/17 12:51:30;;;;;;;4.13;2.80;;;6.80;99.90;;;;;;4879800;29;20217;-84
2023/11/17 12:54:01;;;;;;;8.00;3.33;;;6.70;99.90;;;;;;4878870;29;20538;-83
2023/11/17 12:56:28;;;;;;;11.47;3.20;;;6.60;99.90;;;;;;4869227;29;20193;-82
2023/11/17 12:58:54;;;;;;;10.23;2.70;;;6.60;99.90;;;;;;4858080;29;20192;-85
2023/11/17 13:01:22;;;;;;;4.20;2.53;;;6.60;99.90;;;;;;4882369;29;20187;-83
2023/11/17 13:03:55;;;;;;;3.57;2.30;;;6.60;99.90;;;;;;4871249;29;20178;-83
2023/11/17 13:06:24;;;;;;;4.00;2.40;;;6.70;99.90;;;;;;4868772;29;20653;-82
2023/11/17 13:08:50;;;;;;;4.20;2.40;;;6.70;99.90;;;;;;4876146;29;20216;-84